sensor_id;sensor_type;location;lat;lon;timestamp;temperature;humidity
41644;DHT22;44236;48.098;11.582;2023-05-02T00:02:11;20.10;51.90
41644;DHT22;44236;48.098;11.582;2023-05-02T00:04:36;20.10;51.80
41644;DHT22;44236;48.098;11.582;2023-05-02T00:07:02;20.10;51.90
41644;DHT22;44236;48.098;11.582;2023-05-02T00:09:28;20.10;51.80
41644;DHT22;44236;48.098;11.582;2023-05-02T00:11:54;20.10;51.80
41644;DHT22;44236;48.098;11.582;2023-05-02T00:14:20;20.10;51.90
41644;DHT22;44236;48.098;11.582;2023-05-02T00:16:45;20.10;51.90
41644;DHT22;44236;48.098;11.582;2023-05-02T00:19:11;20.00;51.80
41644;DHT22;44236;48.098;11.582;2023-05-02T00:21:36;20.00;51.70
41644;DHT22;44236;48.098;11.582;2023-05-02T00:24:02;20.00;51.80
41644;DHT22;44236;48.098;11.582;2023-05-02T00:26:28;20.00;51.70
41644;DHT22;44236;48.098;11.582;2023-05-02T00:28:54;20.00;51.70
41644;DHT22;44236;48.098;11.582;2023-05-02T00:31:22;20.00;51.80
41644;DHT22;44236;48.098;11.582;2023-05-02T00:33:51;20.00;51.80
41644;DHT22;44236;48.098;11.582;2023-05-02T00:36:17;20.00;51.80
41644;DHT22;44236;48.098;11.582;2023-05-02T00:38:43;20.00;51.80
41644;DHT22;44236;48.098;11.582;2023-05-02T00:41:09;20.00;51.70
41644;DHT22;44236;48.098;11.582;2023-05-02T00:43:35;20.00;51.80
41644;DHT22;44236;48.098;11.582;2023-05-02T00:46:01;20.00;51.70
41644;DHT22;44236;48.098;11.582;2023-05-02T00:48:27;20.00;51.70
41644;DHT22;44236;48.098;11.582;2023-05-02T00:50:53;20.00;51.70
41644;DHT22;44236;48.098;11.582;2023-05-02T00:53:18;20.00;51.80
41644;DHT22;44236;48.098;11.582;2023-05-02T00:55:44;20.00;51.70
41644;DHT22;44236;48.098;11.582;2023-05-02T00:58:12;20.00;51.70
41644;DHT22;44236;48.098;11.582;2023-05-02T01:05:58;20.00;51.70
41644;DHT22;44236;48.098;11.582;2023-05-02T01:08:37;20.00;51.70
41644;DHT22;44236;48.098;11.582;2023-05-02T01:11:20;20.00;51.70
41644;DHT22;44236;48.098;11.582;2023-05-02T01:13:48;20.00;51.70
41644;DHT22;44236;48.098;11.582;2023-05-02T01:16:16;20.00;51.70
41644;DHT22;44236;48.098;11.582;2023-05-02T01:18:44;19.90;51.70
41644;DHT22;44236;48.098;11.582;2023-05-02T01:21:11;20.00;51.70
41644;DHT22;44236;48.098;11.582;2023-05-02T01:29:10;19.90;51.60
41644;DHT22;44236;48.098;11.582;2023-05-02T01:31:40;20.00;51.70
41644;DHT22;44236;48.098;11.582;2023-05-02T01:34:10;19.90;51.60
41644;DHT22;44236;48.098;11.582;2023-05-02T01:36:40;19.90;51.70
41644;DHT22;44236;48.098;11.582;2023-05-02T01:39:09;19.90;51.70
41644;DHT22;44236;48.098;11.582;2023-05-02T01:41:36;19.90;51.60
41644;DHT22;44236;48.098;11.582;2023-05-02T01:44:04;19.90;51.60
41644;DHT22;44236;48.098;11.582;2023-05-02T01:46:35;19.90;51.60
41644;DHT22;44236;48.098;11.582;2023-05-02T01:49:03;19.90;51.70
41644;DHT22;44236;48.098;11.582;2023-05-02T01:51:32;19.90;51.70
41644;DHT22;44236;48.098;11.582;2023-05-02T01:54:01;19.90;51.70
41644;DHT22;44236;48.098;11.582;2023-05-02T01:56:29;19.90;51.60
41644;DHT22;44236;48.098;11.582;2023-05-02T01:58:56;19.90;51.60
41644;DHT22;44236;48.098;11.582;2023-05-02T02:01:23;19.90;51.60
41644;DHT22;44236;48.098;11.582;2023-05-02T02:03:53;19.90;51.60
41644;DHT22;44236;48.098;11.582;2023-05-02T02:06:20;19.90;51.70
41644;DHT22;44236;48.098;11.582;2023-05-02T02:08:46;19.90;51.60
41644;DHT22;44236;48.098;11.582;2023-05-02T02:11:16;19.90;51.60
41644;DHT22;44236;48.098;11.582;2023-05-02T02:13:48;19.90;51.60
41644;DHT22;44236;48.098;11.582;2023-05-02T02:16:20;19.90;51.60
41644;DHT22;44236;48.098;11.582;2023-05-02T02:18:47;19.90;51.60
41644;DHT22;44236;48.098;11.582;2023-05-02T02:21:17;19.80;51.60
41644;DHT22;44236;48.098;11.582;2023-05-02T02:23:46;19.90;51.70
41644;DHT22;44236;48.098;11.582;2023-05-02T02:26:14;19.80;51.60
41644;DHT22;44236;48.098;11.582;2023-05-02T02:28:42;19.80;51.50
41644;DHT22;44236;48.098;11.582;2023-05-02T02:31:08;19.80;51.60
41644;DHT22;44236;48.098;11.582;2023-05-02T02:33:33;19.80;51.50
41644;DHT22;44236;48.098;11.582;2023-05-02T02:36:10;19.80;51.60
41644;DHT22;44236;48.098;11.582;2023-05-02T02:41:15;19.80;51.50
41644;DHT22;44236;48.098;11.582;2023-05-02T02:44:00;19.80;51.60
41644;DHT22;44236;48.098;11.582;2023-05-02T02:46:50;19.80;51.50
41644;DHT22;44236;48.098;11.582;2023-05-02T02:52:26;19.80;51.50
41644;DHT22;44236;48.098;11.582;2023-05-02T02:55:05;19.80;51.50
41644;DHT22;44236;48.098;11.582;2023-05-02T02:57:50;19.80;51.50
41644;DHT22;44236;48.098;11.582;2023-05-02T03:00:25;20.10;51.60
41644;DHT22;44236;48.098;11.582;2023-05-02T03:02:53;19.80;51.50
41644;DHT22;44236;48.098;11.582;2023-05-02T03:05:20;19.70;51.40
41644;DHT22;44236;48.098;11.582;2023-05-02T03:07:46;19.80;51.50
41644;DHT22;44236;48.098;11.582;2023-05-02T03:10:12;19.70;51.40
41644;DHT22;44236;48.098;11.582;2023-05-02T03:12:38;19.70;51.40
41644;DHT22;44236;48.098;11.582;2023-05-02T03:15:31;19.70;51.40
41644;DHT22;44236;48.098;11.582;2023-05-02T03:18:03;19.70;51.40
41644;DHT22;44236;48.098;11.582;2023-05-02T03:20:29;19.70;51.40
41644;DHT22;44236;48.098;11.582;2023-05-02T03:22:54;19.70;51.40
41644;DHT22;44236;48.098;11.582;2023-05-02T03:25:20;19.70;51.40
41644;DHT22;44236;48.098;11.582;2023-05-02T03:27:45;19.70;51.40
41644;DHT22;44236;48.098;11.582;2023-05-02T03:30:11;19.70;51.40
41644;DHT22;44236;48.098;11.582;2023-05-02T03:32:37;19.70;51.50
41644;DHT22;44236;48.098;11.582;2023-05-02T03:35:02;19.70;51.40
41644;DHT22;44236;48.098;11.582;2023-05-02T03:37:28;19.70;51.40
41644;DHT22;44236;48.098;11.582;2023-05-02T03:39:53;19.70;51.40
41644;DHT22;44236;48.098;11.582;2023-05-02T03:42:20;19.70;51.40
41644;DHT22;44236;48.098;11.582;2023-05-02T03:44:46;19.70;51.30
41644;DHT22;44236;48.098;11.582;2023-05-02T03:47:11;19.70;51.30
41644;DHT22;44236;48.098;11.582;2023-05-02T03:49:39;19.70;51.40
41644;DHT22;44236;48.098;11.582;2023-05-02T03:52:04;19.70;51.40
41644;DHT22;44236;48.098;11.582;2023-05-02T03:54:33;19.70;51.30
41644;DHT22;44236;48.098;11.582;2023-05-02T03:56:59;19.70;51.40
41644;DHT22;44236;48.098;11.582;2023-05-02T03:59:25;19.70;51.40
41644;DHT22;44236;48.098;11.582;2023-05-02T04:01:51;19.70;51.30
41644;DHT22;44236;48.098;11.582;2023-05-02T04:04:17;19.70;51.40
41644;DHT22;44236;48.098;11.582;2023-05-02T04:06:42;19.70;51.40
41644;DHT22;44236;48.098;11.582;2023-05-02T04:09:08;19.70;51.40
41644;DHT22;44236;48.098;11.582;2023-05-02T04:11:34;19.70;51.40
41644;DHT22;44236;48.098;11.582;2023-05-02T04:13:59;19.70;51.30
41644;DHT22;44236;48.098;11.582;2023-05-02T04:16:25;19.60;51.30
41644;DHT22;44236;48.098;11.582;2023-05-02T04:18:51;19.70;51.30
41644;DHT22;44236;48.098;11.582;2023-05-02T04:21:16;19.70;51.40
41644;DHT22;44236;48.098;11.582;2023-05-02T04:23:42;19.70;51.40
41644;DHT22;44236;48.098;11.582;2023-05-02T04:26:07;19.70;51.20
41644;DHT22;44236;48.098;11.582;2023-05-02T04:28:34;19.70;51.50
41644;DHT22;44236;48.098;11.582;2023-05-02T04:31:01;19.60;51.20
41644;DHT22;44236;48.098;11.582;2023-05-02T04:33:28;19.70;51.30
41644;DHT22;44236;48.098;11.582;2023-05-02T04:35:54;19.70;51.30
41644;DHT22;44236;48.098;11.582;2023-05-02T04:38:20;19.70;51.30
41644;DHT22;44236;48.098;11.582;2023-05-02T04:40:46;19.70;51.20
41644;DHT22;44236;48.098;11.582;2023-05-02T04:43:11;19.80;51.30
41644;DHT22;44236;48.098;11.582;2023-05-02T04:45:37;19.80;51.20
41644;DHT22;44236;48.098;11.582;2023-05-02T04:48:03;19.80;51.10
41644;DHT22;44236;48.098;11.582;2023-05-02T04:50:29;19.80;51.10
41644;DHT22;44236;48.098;11.582;2023-05-02T04:52:56;19.90;51.20
41644;DHT22;44236;48.098;11.582;2023-05-02T04:55:22;19.90;51.10
41644;DHT22;44236;48.098;11.582;2023-05-02T04:57:47;19.90;51.10
41644;DHT22;44236;48.098;11.582;2023-05-02T05:00:13;19.90;51.10
41644;DHT22;44236;48.098;11.582;2023-05-02T05:02:39;19.90;51.00
41644;DHT22;44236;48.098;11.582;2023-05-02T05:05:05;19.90;51.10
41644;DHT22;44236;48.098;11.582;2023-05-02T05:07:31;19.90;51.00
41644;DHT22;44236;48.098;11.582;2023-05-02T05:09:56;20.00;51.00
41644;DHT22;44236;48.098;11.582;2023-05-02T05:12:22;20.00;51.10
41644;DHT22;44236;48.098;11.582;2023-05-02T05:14:48;20.00;51.00
41644;DHT22;44236;48.098;11.582;2023-05-02T05:17:15;20.00;51.00
41644;DHT22;44236;48.098;11.582;2023-05-02T05:19:40;19.90;50.90
41644;DHT22;44236;48.098;11.582;2023-05-02T05:22:06;19.80;50.90
41644;DHT22;44236;48.098;11.582;2023-05-02T05:24:32;20.00;50.80
41644;DHT22;44236;48.098;11.582;2023-05-02T05:26:58;20.00;50.80
41644;DHT22;44236;48.098;11.582;2023-05-02T05:29:24;20.00;50.80
41644;DHT22;44236;48.098;11.582;2023-05-02T05:31:49;20.00;50.80
41644;DHT22;44236;48.098;11.582;2023-05-02T05:34:15;20.00;50.70
41644;DHT22;44236;48.098;11.582;2023-05-02T05:36:41;20.00;50.80
41644;DHT22;44236;48.098;11.582;2023-05-02T05:39:07;20.00;50.80
41644;DHT22;44236;48.098;11.582;2023-05-02T05:41:33;20.00;50.80
41644;DHT22;44236;48.098;11.582;2023-05-02T05:43:59;20.00;50.80
41644;DHT22;44236;48.098;11.582;2023-05-02T05:46:25;20.00;50.70
41644;DHT22;44236;48.098;11.582;2023-05-02T05:48:51;20.10;50.80
41644;DHT22;44236;48.098;11.582;2023-05-02T05:51:16;20.00;50.70
41644;DHT22;44236;48.098;11.582;2023-05-02T05:53:42;20.10;50.80
41644;DHT22;44236;48.098;11.582;2023-05-02T05:56:09;20.10;50.80
41644;DHT22;44236;48.098;11.582;2023-05-02T05:58:36;20.10;50.80
41644;DHT22;44236;48.098;11.582;2023-05-02T06:01:01;20.10;50.80
41644;DHT22;44236;48.098;11.582;2023-05-02T06:03:27;20.00;50.70
41644;DHT22;44236;48.098;11.582;2023-05-02T06:05:53;20.00;50.80
41644;DHT22;44236;48.098;11.582;2023-05-02T06:08:18;20.10;50.90
41644;DHT22;44236;48.098;11.582;2023-05-02T06:10:46;20.10;51.10
41644;DHT22;44236;48.098;11.582;2023-05-02T06:13:11;20.10;51.10
41644;DHT22;44236;48.098;11.582;2023-05-02T06:15:37;20.10;50.90
41644;DHT22;44236;48.098;11.582;2023-05-02T06:18:03;19.80;51.10
41644;DHT22;44236;48.098;11.582;2023-05-02T06:20:28;19.70;51.10
41644;DHT22;44236;48.098;11.582;2023-05-02T06:22:54;19.80;51.10
41644;DHT22;44236;48.098;11.582;2023-05-02T06:25:21;19.90;51.20
41644;DHT22;44236;48.098;11.582;2023-05-02T06:27:46;19.90;51.50
41644;DHT22;44236;48.098;11.582;2023-05-02T06:30:12;20.00;51.10
41644;DHT22;44236;48.098;11.582;2023-05-02T06:32:38;20.00;50.90
41644;DHT22;44236;48.098;11.582;2023-05-02T06:35:04;20.00;50.80
41644;DHT22;44236;48.098;11.582;2023-05-02T06:37:33;20.00;50.80
41644;DHT22;44236;48.098;11.582;2023-05-02T06:40:02;20.10;49.90
41644;DHT22;44236;48.098;11.582;2023-05-02T06:42:28;20.10;50.00
41644;DHT22;44236;48.098;11.582;2023-05-02T06:44:54;20.10;50.10
41644;DHT22;44236;48.098;11.582;2023-05-02T06:47:20;20.20;50.30
41644;DHT22;44236;48.098;11.582;2023-05-02T06:49:51;20.20;50.00
41644;DHT22;44236;48.098;11.582;2023-05-02T06:52:18;20.20;50.10
41644;DHT22;44236;48.098;11.582;2023-05-02T06:54:44;20.20;49.90
41644;DHT22;44236;48.098;11.582;2023-05-02T06:57:10;20.20;50.10
41644;DHT22;44236;48.098;11.582;2023-05-02T06:59:35;20.30;50.30
41644;DHT22;44236;48.098;11.582;2023-05-02T07:02:01;20.30;50.10
41644;DHT22;44236;48.098;11.582;2023-05-02T07:04:27;20.30;50.00
41644;DHT22;44236;48.098;11.582;2023-05-02T07:06:52;20.30;49.60
41644;DHT22;44236;48.098;11.582;2023-05-02T07:09:18;20.30;50.50
41644;DHT22;44236;48.098;11.582;2023-05-02T07:11:44;20.30;50.30
41644;DHT22;44236;48.098;11.582;2023-05-02T07:14:09;20.30;50.00
41644;DHT22;44236;48.098;11.582;2023-05-02T07:16:35;20.30;50.10
41644;DHT22;44236;48.098;11.582;2023-05-02T07:19:00;20.30;50.70
41644;DHT22;44236;48.098;11.582;2023-05-02T07:21:29;20.30;50.40
41644;DHT22;44236;48.098;11.582;2023-05-02T07:23:54;20.30;51.00
41644;DHT22;44236;48.098;11.582;2023-05-02T07:26:22;20.20;50.80
41644;DHT22;44236;48.098;11.582;2023-05-02T07:28:47;20.30;50.70
41644;DHT22;44236;48.098;11.582;2023-05-02T07:31:13;20.30;50.40
41644;DHT22;44236;48.098;11.582;2023-05-02T07:33:39;20.30;50.70
41644;DHT22;44236;48.098;11.582;2023-05-02T07:36:08;20.30;50.50
41644;DHT22;44236;48.098;11.582;2023-05-02T07:38:37;20.40;50.20
41644;DHT22;44236;48.098;11.582;2023-05-02T07:41:02;20.40;51.00
41644;DHT22;44236;48.098;11.582;2023-05-02T07:43:28;20.40;50.90
41644;DHT22;44236;48.098;11.582;2023-05-02T07:45:54;20.40;50.50
41644;DHT22;44236;48.098;11.582;2023-05-02T07:48:20;20.40;51.30
41644;DHT22;44236;48.098;11.582;2023-05-02T07:50:46;20.30;51.10
41644;DHT22;44236;48.098;11.582;2023-05-02T07:53:11;20.40;51.50
41644;DHT22;44236;48.098;11.582;2023-05-02T07:55:37;20.40;51.40
41644;DHT22;44236;48.098;11.582;2023-05-02T07:58:02;20.40;51.40
41644;DHT22;44236;48.098;11.582;2023-05-02T08:00:28;20.30;51.30
41644;DHT22;44236;48.098;11.582;2023-05-02T08:02:54;20.40;51.40
41644;DHT22;44236;48.098;11.582;2023-05-02T08:05:20;20.30;51.40
41644;DHT22;44236;48.098;11.582;2023-05-02T08:07:46;20.40;51.60
41644;DHT22;44236;48.098;11.582;2023-05-02T08:10:12;20.40;51.60
41644;DHT22;44236;48.098;11.582;2023-05-02T08:12:42;20.40;51.60
41644;DHT22;44236;48.098;11.582;2023-05-02T08:15:10;20.40;51.70
41644;DHT22;44236;48.098;11.582;2023-05-02T08:17:36;20.40;51.30
41644;DHT22;44236;48.098;11.582;2023-05-02T08:20:02;20.40;51.30
41644;DHT22;44236;48.098;11.582;2023-05-02T08:22:27;20.40;51.30
41644;DHT22;44236;48.098;11.582;2023-05-02T08:24:53;20.40;51.00
41644;DHT22;44236;48.098;11.582;2023-05-02T08:27:19;20.40;50.60
41644;DHT22;44236;48.098;11.582;2023-05-02T08:29:45;20.40;50.60
41644;DHT22;44236;48.098;11.582;2023-05-02T08:32:10;20.50;51.10
41644;DHT22;44236;48.098;11.582;2023-05-02T08:34:36;20.50;50.70
41644;DHT22;44236;48.098;11.582;2023-05-02T08:37:07;20.50;50.80
41644;DHT22;44236;48.098;11.582;2023-05-02T08:39:33;20.50;51.10
41644;DHT22;44236;48.098;11.582;2023-05-02T08:41:59;20.50;51.50
41644;DHT22;44236;48.098;11.582;2023-05-02T08:44:25;20.50;50.80
41644;DHT22;44236;48.098;11.582;2023-05-02T08:46:51;20.60;50.60
41644;DHT22;44236;48.098;11.582;2023-05-02T08:49:18;20.60;50.60
41644;DHT22;44236;48.098;11.582;2023-05-02T08:51:45;20.60;50.60
41644;DHT22;44236;48.098;11.582;2023-05-02T08:54:15;20.60;50.70
41644;DHT22;44236;48.098;11.582;2023-05-02T08:56:41;20.60;50.70
41644;DHT22;44236;48.098;11.582;2023-05-02T08:59:06;20.60;50.80
41644;DHT22;44236;48.098;11.582;2023-05-02T09:01:34;20.60;50.70
41644;DHT22;44236;48.098;11.582;2023-05-02T09:04:01;20.60;50.60
41644;DHT22;44236;48.098;11.582;2023-05-02T09:06:27;20.60;50.70
41644;DHT22;44236;48.098;11.582;2023-05-02T09:08:53;20.70;50.80
41644;DHT22;44236;48.098;11.582;2023-05-02T09:11:20;20.70;50.70
41644;DHT22;44236;48.098;11.582;2023-05-02T09:13:50;20.60;50.80
41644;DHT22;44236;48.098;11.582;2023-05-02T09:16:20;20.70;50.80
41644;DHT22;44236;48.098;11.582;2023-05-02T09:18:57;20.70;51.20
41644;DHT22;44236;48.098;11.582;2023-05-02T09:21:24;20.70;51.20
41644;DHT22;44236;48.098;11.582;2023-05-02T09:23:52;20.60;50.80
41644;DHT22;44236;48.098;11.582;2023-05-02T09:26:18;20.70;50.80
41644;DHT22;44236;48.098;11.582;2023-05-02T09:31:16;20.70;50.90
41644;DHT22;44236;48.098;11.582;2023-05-02T09:33:42;20.70;50.80
41644;DHT22;44236;48.098;11.582;2023-05-02T09:36:10;20.70;50.90
41644;DHT22;44236;48.098;11.582;2023-05-02T09:38:37;20.70;51.10
41644;DHT22;44236;48.098;11.582;2023-05-02T09:41:03;20.70;50.90
41644;DHT22;44236;48.098;11.582;2023-05-02T09:43:30;20.70;50.80
41644;DHT22;44236;48.098;11.582;2023-05-02T09:46:09;20.70;50.80
41644;DHT22;44236;48.098;11.582;2023-05-02T09:48:55;20.70;51.00
41644;DHT22;44236;48.098;11.582;2023-05-02T09:51:23;20.70;51.20
41644;DHT22;44236;48.098;11.582;2023-05-02T09:53:49;20.70;52.20
41644;DHT22;44236;48.098;11.582;2023-05-02T09:56:15;20.70;52.40
41644;DHT22;44236;48.098;11.582;2023-05-02T09:58:41;20.70;52.50
41644;DHT22;44236;48.098;11.582;2023-05-02T10:01:06;20.70;52.40
41644;DHT22;44236;48.098;11.582;2023-05-02T10:03:36;20.60;52.20
41644;DHT22;44236;48.098;11.582;2023-05-02T10:06:02;20.60;51.80
41644;DHT22;44236;48.098;11.582;2023-05-02T10:08:31;20.60;52.10
41644;DHT22;44236;48.098;11.582;2023-05-02T10:10:58;20.70;51.90
41644;DHT22;44236;48.098;11.582;2023-05-02T10:13:26;20.70;51.50
41644;DHT22;44236;48.098;11.582;2023-05-02T10:16:00;20.70;51.80
41644;DHT22;44236;48.098;11.582;2023-05-02T10:18:57;20.70;51.30
41644;DHT22;44236;48.098;11.582;2023-05-02T10:21:26;20.70;51.70
41644;DHT22;44236;48.098;11.582;2023-05-02T10:23:52;20.70;50.90
41644;DHT22;44236;48.098;11.582;2023-05-02T10:26:18;20.70;51.20
41644;DHT22;44236;48.098;11.582;2023-05-02T10:28:46;20.70;51.60
41644;DHT22;44236;48.098;11.582;2023-05-02T10:31:13;20.70;51.50
41644;DHT22;44236;48.098;11.582;2023-05-02T10:33:39;20.70;51.80
41644;DHT22;44236;48.098;11.582;2023-05-02T10:36:07;20.80;52.00
41644;DHT22;44236;48.098;11.582;2023-05-02T10:38:35;20.70;51.70
41644;DHT22;44236;48.098;11.582;2023-05-02T10:41:06;20.80;51.70
41644;DHT22;44236;48.098;11.582;2023-05-02T10:43:34;20.80;51.90
41644;DHT22;44236;48.098;11.582;2023-05-02T10:46:01;20.70;52.10
41644;DHT22;44236;48.098;11.582;2023-05-02T10:48:29;20.80;52.20
41644;DHT22;44236;48.098;11.582;2023-05-02T10:50:57;20.70;52.20
41644;DHT22;44236;48.098;11.582;2023-05-02T10:53:23;20.80;52.10
41644;DHT22;44236;48.098;11.582;2023-05-02T10:58:37;20.80;51.90
41644;DHT22;44236;48.098;11.582;2023-05-02T11:04:03;20.80;51.90
41644;DHT22;44236;48.098;11.582;2023-05-02T11:06:30;20.80;52.10
41644;DHT22;44236;48.098;11.582;2023-05-02T11:11:45;20.80;52.20
41644;DHT22;44236;48.098;11.582;2023-05-02T11:14:42;20.80;52.70
41644;DHT22;44236;48.098;11.582;2023-05-02T11:19:28;20.80;52.80
41644;DHT22;44236;48.098;11.582;2023-05-02T11:24:53;20.80;52.40
41644;DHT22;44236;48.098;11.582;2023-05-02T11:35:23;20.80;52.50
41644;DHT22;44236;48.098;11.582;2023-05-02T11:37:58;20.80;53.00
41644;DHT22;44236;48.098;11.582;2023-05-02T11:40:25;20.90;52.40
41644;DHT22;44236;48.098;11.582;2023-05-02T11:42:51;20.80;52.60
41644;DHT22;44236;48.098;11.582;2023-05-02T11:45:17;20.80;52.30
41644;DHT22;44236;48.098;11.582;2023-05-02T11:47:43;20.80;52.30
41644;DHT22;44236;48.098;11.582;2023-05-02T11:50:13;20.80;52.70
41644;DHT22;44236;48.098;11.582;2023-05-02T11:52:40;20.80;54.00
41644;DHT22;44236;48.098;11.582;2023-05-02T11:55:09;20.80;53.30
41644;DHT22;44236;48.098;11.582;2023-05-02T11:57:36;20.90;52.60
41644;DHT22;44236;48.098;11.582;2023-05-02T12:00:02;20.90;52.50
41644;DHT22;44236;48.098;11.582;2023-05-02T12:02:39;20.90;52.60
41644;DHT22;44236;48.098;11.582;2023-05-02T12:05:06;21.00;52.60
41644;DHT22;44236;48.098;11.582;2023-05-02T12:10:02;21.00;52.40
41644;DHT22;44236;48.098;11.582;2023-05-02T12:12:28;20.90;52.40
41644;DHT22;44236;48.098;11.582;2023-05-02T12:14:54;21.00;52.30
41644;DHT22;44236;48.098;11.582;2023-05-02T12:17:20;21.00;52.80
41644;DHT22;44236;48.098;11.582;2023-05-02T12:19:47;21.00;52.20
41644;DHT22;44236;48.098;11.582;2023-05-02T12:22:13;21.00;52.50
41644;DHT22;44236;48.098;11.582;2023-05-02T12:24:40;21.00;52.30
41644;DHT22;44236;48.098;11.582;2023-05-02T12:27:09;21.00;52.10
41644;DHT22;44236;48.098;11.582;2023-05-02T12:29:43;21.00;52.20
41644;DHT22;44236;48.098;11.582;2023-05-02T12:32:10;21.00;52.40
41644;DHT22;44236;48.098;11.582;2023-05-02T12:34:37;21.10;52.40
41644;DHT22;44236;48.098;11.582;2023-05-02T12:37:03;21.10;52.60
41644;DHT22;44236;48.098;11.582;2023-05-02T12:39:37;21.10;52.90
41644;DHT22;44236;48.098;11.582;2023-05-02T12:42:13;21.10;52.60
41644;DHT22;44236;48.098;11.582;2023-05-02T12:44:44;21.10;52.40
41644;DHT22;44236;48.098;11.582;2023-05-02T12:47:12;21.10;52.60
41644;DHT22;44236;48.098;11.582;2023-05-02T12:52:13;21.20;52.70
41644;DHT22;44236;48.098;11.582;2023-05-02T12:54:39;21.10;52.90
41644;DHT22;44236;48.098;11.582;2023-05-02T12:57:04;21.20;52.50
41644;DHT22;44236;48.098;11.582;2023-05-02T12:59:31;21.20;52.50
41644;DHT22;44236;48.098;11.582;2023-05-02T13:01:58;21.20;52.60
41644;DHT22;44236;48.098;11.582;2023-05-02T13:04:37;21.20;52.60
41644;DHT22;44236;48.098;11.582;2023-05-02T13:07:03;21.20;52.70
41644;DHT22;44236;48.098;11.582;2023-05-02T13:09:29;21.10;54.70
41644;DHT22;44236;48.098;11.582;2023-05-02T13:11:54;20.70;53.60
41644;DHT22;44236;48.098;11.582;2023-05-02T13:14:21;20.30;53.10
41644;DHT22;44236;48.098;11.582;2023-05-02T13:16:48;19.90;51.70
41644;DHT22;44236;48.098;11.582;2023-05-02T13:19:14;19.60;52.30
41644;DHT22;44236;48.098;11.582;2023-05-02T13:21:40;19.50;53.90
41644;DHT22;44236;48.098;11.582;2023-05-02T13:24:05;19.50;53.60
41644;DHT22;44236;48.098;11.582;2023-05-02T13:26:31;19.50;52.40
41644;DHT22;44236;48.098;11.582;2023-05-02T13:28:57;19.50;51.60
41644;DHT22;44236;48.098;11.582;2023-05-02T13:31:22;19.50;52.10
41644;DHT22;44236;48.098;11.582;2023-05-02T13:33:48;19.40;51.90
41644;DHT22;44236;48.098;11.582;2023-05-02T13:36:13;19.30;52.40
41644;DHT22;44236;48.098;11.582;2023-05-02T13:38:39;19.50;51.70
41644;DHT22;44236;48.098;11.582;2023-05-02T13:41:05;19.60;53.00
41644;DHT22;44236;48.098;11.582;2023-05-02T13:43:30;19.70;52.60
41644;DHT22;44236;48.098;11.582;2023-05-02T13:45:56;19.90;53.00
41644;DHT22;44236;48.098;11.582;2023-05-02T13:48:22;20.00;52.50
41644;DHT22;44236;48.098;11.582;2023-05-02T13:50:48;20.10;51.40
41644;DHT22;44236;48.098;11.582;2023-05-02T13:53:13;20.00;50.50
41644;DHT22;44236;48.098;11.582;2023-05-02T13:55:39;20.00;51.20
41644;DHT22;44236;48.098;11.582;2023-05-02T13:58:05;20.20;52.30
41644;DHT22;44236;48.098;11.582;2023-05-02T14:00:31;20.20;52.70
41644;DHT22;44236;48.098;11.582;2023-05-02T14:02:56;20.30;53.30
41644;DHT22;44236;48.098;11.582;2023-05-02T14:05:22;20.30;53.30
41644;DHT22;44236;48.098;11.582;2023-05-02T14:07:48;20.40;52.60
41644;DHT22;44236;48.098;11.582;2023-05-02T14:10:13;20.40;52.10
41644;DHT22;44236;48.098;11.582;2023-05-02T14:12:39;20.40;51.80
41644;DHT22;44236;48.098;11.582;2023-05-02T14:15:05;20.40;51.80
41644;DHT22;44236;48.098;11.582;2023-05-02T14:17:31;20.40;51.10
41644;DHT22;44236;48.098;11.582;2023-05-02T14:19:56;20.40;50.10
41644;DHT22;44236;48.098;11.582;2023-05-02T14:22:22;20.40;50.90
41644;DHT22;44236;48.098;11.582;2023-05-02T14:24:48;20.50;51.40
41644;DHT22;44236;48.098;11.582;2023-05-02T14:27:13;20.50;51.40
41644;DHT22;44236;48.098;11.582;2023-05-02T14:29:46;20.50;51.00
41644;DHT22;44236;48.098;11.582;2023-05-02T14:32:12;20.50;50.20
41644;DHT22;44236;48.098;11.582;2023-05-02T14:34:38;20.50;50.80
41644;DHT22;44236;48.098;11.582;2023-05-02T14:37:04;20.50;52.60
41644;DHT22;44236;48.098;11.582;2023-05-02T14:39:29;20.50;50.90
41644;DHT22;44236;48.098;11.582;2023-05-02T14:41:55;20.30;50.00
41644;DHT22;44236;48.098;11.582;2023-05-02T14:44:21;20.20;50.20
41644;DHT22;44236;48.098;11.582;2023-05-02T14:46:46;20.00;50.10
41644;DHT22;44236;48.098;11.582;2023-05-02T14:49:12;19.70;50.00
41644;DHT22;44236;48.098;11.582;2023-05-02T14:51:39;19.80;51.60
41644;DHT22;44236;48.098;11.582;2023-05-02T14:54:05;20.00;53.60
41644;DHT22;44236;48.098;11.582;2023-05-02T14:56:32;20.20;54.20
41644;DHT22;44236;48.098;11.582;2023-05-02T14:58:57;20.20;53.90
41644;DHT22;44236;48.098;11.582;2023-05-02T15:01:23;20.30;53.70
41644;DHT22;44236;48.098;11.582;2023-05-02T15:03:49;20.30;53.00
41644;DHT22;44236;48.098;11.582;2023-05-02T15:06:16;20.40;52.80
41644;DHT22;44236;48.098;11.582;2023-05-02T15:08:42;20.50;52.80
41644;DHT22;44236;48.098;11.582;2023-05-02T15:11:09;20.50;53.10
41644;DHT22;44236;48.098;11.582;2023-05-02T15:13:35;20.50;52.80
41644;DHT22;44236;48.098;11.582;2023-05-02T15:16:02;20.50;52.60
41644;DHT22;44236;48.098;11.582;2023-05-02T15:18:28;20.60;52.70
41644;DHT22;44236;48.098;11.582;2023-05-02T15:20:54;20.60;52.90
41644;DHT22;44236;48.098;11.582;2023-05-02T15:23:19;20.60;52.50
41644;DHT22;44236;48.098;11.582;2023-05-02T15:25:45;20.60;53.50
41644;DHT22;44236;48.098;11.582;2023-05-02T15:28:11;20.60;51.90
41644;DHT22;44236;48.098;11.582;2023-05-02T15:30:37;20.30;51.50
41644;DHT22;44236;48.098;11.582;2023-05-02T15:33:02;20.10;51.80
41644;DHT22;44236;48.098;11.582;2023-05-02T15:35:28;20.00;52.10
41644;DHT22;44236;48.098;11.582;2023-05-02T15:37:54;20.00;52.60
41644;DHT22;44236;48.098;11.582;2023-05-02T15:40:20;20.10;52.90
41644;DHT22;44236;48.098;11.582;2023-05-02T15:42:46;20.20;53.10
41644;DHT22;44236;48.098;11.582;2023-05-02T15:45:12;20.30;53.00
41644;DHT22;44236;48.098;11.582;2023-05-02T15:47:38;20.40;52.90
41644;DHT22;44236;48.098;11.582;2023-05-02T15:50:05;20.40;52.90
41644;DHT22;44236;48.098;11.582;2023-05-02T15:52:30;20.50;52.50
41644;DHT22;44236;48.098;11.582;2023-05-02T15:54:56;20.50;51.90
41644;DHT22;44236;48.098;11.582;2023-05-02T15:57:23;20.50;52.70
41644;DHT22;44236;48.098;11.582;2023-05-02T15:59:50;20.60;52.20
41644;DHT22;44236;48.098;11.582;2023-05-02T16:02:17;20.60;52.20